createdAt,value
2019-04-03T00:00:18.131Z,99.90
2019-04-03T00:02:47.477Z,99.90
2019-04-03T00:05:16.821Z,99.90
2019-04-03T00:07:46.287Z,99.90
2019-04-03T00:10:16.258Z,99.90
2019-04-03T00:12:46.833Z,99.90
2019-04-03T00:15:16.531Z,99.90
2019-04-03T00:17:46.278Z,99.90
2019-04-03T00:20:20.569Z,99.90
2019-04-03T00:22:51.831Z,99.90
2019-04-03T00:25:22.393Z,99.90
2019-04-03T00:27:52.778Z,99.90
2019-04-03T00:30:22.774Z,99.90
2019-04-03T00:32:53.529Z,99.90
2019-04-03T00:35:23.924Z,99.90
2019-04-03T00:37:53.879Z,99.90
2019-04-03T00:40:24.701Z,99.90
2019-04-03T00:42:54.863Z,99.90
2019-04-03T00:45:25.010Z,99.90
2019-04-03T00:47:55.698Z,99.90
2019-04-03T00:50:26.973Z,99.90
2019-04-03T00:52:57.441Z,99.90
2019-04-03T00:55:27.215Z,99.90
2019-04-03T00:57:56.919Z,99.90
2019-04-03T01:00:26.957Z,99.90
2019-04-03T01:02:58.156Z,99.90
2019-04-03T01:05:28.705Z,99.90
2019-04-03T01:07:59.832Z,99.90
2019-04-03T01:10:30.190Z,99.90
2019-04-03T01:13:02.125Z,99.90
2019-04-03T01:15:31.617Z,99.90
2019-04-03T01:18:04.403Z,99.90
2019-04-03T01:20:32.596Z,99.90
2019-04-03T01:23:01.937Z,99.90
2019-04-03T01:25:31.272Z,99.90
2019-04-03T01:28:00.815Z,99.90
2019-04-03T01:30:30.306Z,99.90
2019-04-03T01:32:59.649Z,99.90
2019-04-03T01:35:29.013Z,99.90
2019-04-03T01:37:58.537Z,99.90
2019-04-03T01:40:27.893Z,99.90
2019-04-03T01:42:57.241Z,99.90
2019-04-03T01:45:26.588Z,99.90
2019-04-03T01:47:58.253Z,99.90
2019-04-03T01:50:28.633Z,99.90
2019-04-03T01:52:58.116Z,99.90
2019-04-03T01:55:27.637Z,99.90
2019-04-03T01:57:57.138Z,99.90
2019-04-03T02:00:26.448Z,99.90
2019-04-03T02:02:56.046Z,99.90
2019-04-03T02:05:25.855Z,99.90
2019-04-03T02:07:55.190Z,99.90
2019-04-03T02:10:25.271Z,99.90
2019-04-03T02:12:54.569Z,99.90
2019-04-03T02:15:23.978Z,99.90
2019-04-03T02:17:54.987Z,99.90
2019-04-03T02:20:26.131Z,99.90
2019-04-03T02:22:55.453Z,99.90
2019-04-03T02:25:24.794Z,99.90
2019-04-03T02:27:54.129Z,99.90
2019-04-03T02:30:23.723Z,99.90
2019-04-03T02:32:56.611Z,99.90
2019-04-03T02:35:24.782Z,99.90
2019-04-03T02:37:54.099Z,99.90
2019-04-03T02:40:23.475Z,99.90
2019-04-03T02:42:53.269Z,99.90
2019-04-03T02:45:24.264Z,99.90
2019-04-03T02:47:53.765Z,99.90
2019-04-03T02:50:26.483Z,99.90
2019-04-03T02:52:58.041Z,99.90
2019-04-03T02:55:28.053Z,99.90
2019-04-03T02:57:57.489Z,99.90
2019-04-03T03:00:27.071Z,99.90
2019-04-03T03:02:56.456Z,99.90
2019-04-03T03:05:28.203Z,99.90
2019-04-03T03:07:57.965Z,99.90
2019-04-03T03:10:30.691Z,99.90
2019-04-03T03:13:01.074Z,99.90
2019-04-03T03:15:31.244Z,99.90
2019-04-03T03:18:00.917Z,99.90
2019-04-03T03:20:31.351Z,99.90
2019-04-03T03:23:01.741Z,99.90
2019-04-03T03:25:33.594Z,99.90
2019-04-03T03:28:04.030Z,99.90
2019-04-03T03:30:43.653Z,99.90
2019-04-03T03:33:24.460Z,99.90
2019-04-03T03:35:41.597Z,99.90
2019-04-03T03:38:08.677Z,99.90
2019-04-03T03:40:38.585Z,99.90
2019-04-03T03:43:08.181Z,99.90
2019-04-03T03:45:38.390Z,99.90
2019-04-03T03:48:10.645Z,99.90
2019-04-03T03:50:40.240Z,99.90
2019-04-03T03:53:12.087Z,99.90
2019-04-03T03:55:41.422Z,99.90
2019-04-03T03:58:13.194Z,99.90
2019-04-03T04:00:42.895Z,99.90
2019-04-03T04:03:13.871Z,99.90
2019-04-03T04:05:43.201Z,99.90
2019-04-03T04:08:12.701Z,99.90
2019-04-03T04:10:43.908Z,99.90
2019-04-03T04:13:15.526Z,99.90
2019-04-03T04:15:45.108Z,99.90
2019-04-03T04:18:16.158Z,99.90
2019-04-03T04:20:46.301Z,99.90
2019-04-03T04:23:16.534Z,99.90
2019-04-03T04:25:46.498Z,99.90
2019-04-03T04:28:16.125Z,99.90
2019-04-03T04:30:48.883Z,99.90
2019-04-03T04:33:18.781Z,99.90
2019-04-03T04:35:49.665Z,99.90
2019-04-03T04:38:19.860Z,99.90
2019-04-03T04:40:49.452Z,99.90
2019-04-03T04:43:18.881Z,99.90
2019-04-03T04:45:48.224Z,99.90
2019-04-03T04:48:20.132Z,99.90
2019-04-03T04:50:48.643Z,99.90
2019-04-03T04:53:17.988Z,99.90
2019-04-03T04:55:47.493Z,99.90
2019-04-03T04:58:17.032Z,99.90
2019-04-03T05:00:47.567Z,99.90
2019-04-03T05:03:17.191Z,99.90
2019-04-03T05:05:46.529Z,99.90
2019-04-03T05:08:15.873Z,99.90
2019-04-03T05:10:45.206Z,99.90
2019-04-03T05:13:16.002Z,99.90
2019-04-03T05:15:45.689Z,99.90
2019-04-03T05:18:15.442Z,99.90
2019-04-03T05:20:44.821Z,99.90
2019-04-03T05:23:14.153Z,99.90
2019-04-03T05:25:43.866Z,99.90
2019-04-03T05:28:13.208Z,99.90
2019-04-03T05:30:42.554Z,99.90
2019-04-03T05:33:12.064Z,99.90
2019-04-03T05:35:41.401Z,99.90
2019-04-03T05:38:10.771Z,99.90
2019-04-03T05:40:40.139Z,99.90
2019-04-03T05:43:09.465Z,99.90
2019-04-03T05:45:41.301Z,99.90
2019-04-03T05:48:12.644Z,99.90
2019-04-03T05:50:43.058Z,99.90
2019-04-03T05:53:12.724Z,99.90
2019-04-03T05:55:42.068Z,99.90
2019-04-03T05:58:11.489Z,99.90
2019-04-03T06:00:41.092Z,99.90
2019-04-03T06:03:10.435Z,99.90
2019-04-03T06:05:39.822Z,99.90
2019-04-03T06:08:09.165Z,99.90
2019-04-03T06:10:38.570Z,99.90
2019-04-03T06:13:07.924Z,99.90
2019-04-03T06:15:37.399Z,99.90
2019-04-03T06:18:06.827Z,99.90
2019-04-03T06:20:36.380Z,99.90
2019-04-03T06:23:05.695Z,99.90
2019-04-03T06:25:35.036Z,99.90
2019-04-03T06:28:04.371Z,99.90
2019-04-03T06:30:33.715Z,99.90
2019-04-03T06:33:03.050Z,99.90
2019-04-03T06:35:34.669Z,99.90
2019-04-03T06:38:03.500Z,99.90
2019-04-03T06:40:35.139Z,99.90
2019-04-03T06:43:03.859Z,99.90
2019-04-03T06:45:33.203Z,99.90
2019-04-03T06:48:04.700Z,99.90
2019-04-03T06:50:33.771Z,99.90
2019-04-03T06:53:03.132Z,99.90
2019-04-03T06:55:33.178Z,99.90
2019-04-03T06:58:03.859Z,99.90
2019-04-03T07:00:33.203Z,99.90
2019-04-03T07:03:03.854Z,99.90
2019-04-03T07:05:33.469Z,99.90
2019-04-03T07:08:04.326Z,99.90
2019-04-03T07:10:34.566Z,99.90
2019-04-03T07:13:05.195Z,99.90
2019-04-03T07:15:34.534Z,99.90
2019-04-03T07:18:05.984Z,99.90
2019-04-03T07:20:37.998Z,99.90
2019-04-03T07:23:07.350Z,99.90
2019-04-03T07:25:36.732Z,99.90
2019-04-03T07:28:08.277Z,99.90
2019-04-03T07:30:37.154Z,99.90
2019-04-03T07:33:06.501Z,99.90
2019-04-03T07:35:36.172Z,99.90
2019-04-03T07:38:05.930Z,99.90
2019-04-03T07:40:35.484Z,99.90
2019-04-03T07:43:05.102Z,99.90
2019-04-03T07:45:34.454Z,99.90
2019-04-03T07:48:06.144Z,99.90
2019-04-03T07:50:36.936Z,99.90
2019-04-03T07:53:06.009Z,99.90
2019-04-03T07:55:35.607Z,99.90
2019-04-03T07:58:05.006Z,99.90
2019-04-03T08:00:34.414Z,99.90
2019-04-03T08:03:04.668Z,99.90
2019-04-03T08:05:34.357Z,99.90
2019-04-03T08:08:03.704Z,99.90
2019-04-03T08:10:33.194Z,99.90
2019-04-03T08:13:02.531Z,99.90
2019-04-03T08:15:31.888Z,99.90
2019-04-03T08:18:01.221Z,99.90
2019-04-03T08:20:32.641Z,99.90
2019-04-03T08:23:04.691Z,99.90
2019-04-03T08:25:33.265Z,99.90
2019-04-03T08:28:02.955Z,99.90
2019-04-03T08:30:32.356Z,99.90
2019-04-03T08:33:02.126Z,99.90
2019-04-03T08:35:32.802Z,99.90
2019-04-03T08:38:02.575Z,99.90
2019-04-03T08:40:32.169Z,99.90
2019-04-03T08:43:01.534Z,99.90
2019-04-03T08:45:30.984Z,99.90
2019-04-03T08:48:01.368Z,99.90
2019-04-03T08:50:30.710Z,99.90
2019-04-03T08:53:00.046Z,99.90
2019-04-03T08:55:29.614Z,99.90
2019-04-03T08:57:59.004Z,99.90
2019-04-03T09:00:31.592Z,99.90
2019-04-03T09:02:59.415Z,99.90
2019-04-03T09:05:28.753Z,99.90
2019-04-03T09:07:58.089Z,99.90
2019-04-03T09:10:27.430Z,99.90
2019-04-03T09:12:56.781Z,99.90
2019-04-03T09:15:28.225Z,99.90
2019-04-03T09:17:57.206Z,99.90
2019-04-03T09:20:26.730Z,99.90
2019-04-03T09:22:56.305Z,99.90
2019-04-03T09:25:25.659Z,99.90
2019-04-03T09:27:55.069Z,99.90
2019-04-03T09:30:25.157Z,99.90
2019-04-03T09:32:54.520Z,99.90
2019-04-03T09:35:23.823Z,99.90
2019-04-03T09:37:53.241Z,99.90
2019-04-03T09:40:22.580Z,99.90
2019-04-03T09:42:52.051Z,99.90
2019-04-03T09:45:21.392Z,99.90
2019-04-03T09:47:50.756Z,99.90
2019-04-03T09:50:22.046Z,99.90
2019-04-03T09:52:54.125Z,99.90
2019-04-03T09:55:22.460Z,99.90
2019-04-03T09:57:53.191Z,99.90
2019-04-03T10:00:22.970Z,99.90
2019-04-03T10:02:52.306Z,99.90
2019-04-03T10:05:21.665Z,99.90
2019-04-03T10:07:51.071Z,99.90
2019-04-03T10:10:21.442Z,99.90
2019-04-03T10:12:53.638Z,99.90
2019-04-03T10:15:21.958Z,99.50
2019-04-03T10:17:51.420Z,98.70
2019-04-03T10:20:21.823Z,99.90
2019-04-03T10:22:51.160Z,99.50
2019-04-03T10:25:20.590Z,99.90
2019-04-03T10:27:49.918Z,99.90
2019-04-03T10:30:21.991Z,99.90
2019-04-03T10:32:51.535Z,99.90
2019-04-03T10:35:20.878Z,99.90
2019-04-03T10:37:50.241Z,99.90
2019-04-03T10:40:20.011Z,99.90
2019-04-03T10:42:49.387Z,99.90
2019-04-03T10:45:20.324Z,99.90
2019-04-03T10:47:49.658Z,99.90
2019-04-03T10:50:19.705Z,99.90
2019-04-03T10:52:49.342Z,99.90
2019-04-03T10:55:19.141Z,99.90
2019-04-03T10:57:48.540Z,99.90
2019-04-03T11:00:18.282Z,99.90
2019-04-03T11:02:47.636Z,99.90
2019-04-03T11:05:17.253Z,99.90
2019-04-03T11:07:46.542Z,99.40
2019-04-03T11:10:16.628Z,99.10
2019-04-03T11:12:45.975Z,98.80
2019-04-03T11:15:17.116Z,97.90
2019-04-03T11:17:48.469Z,98.20
2019-04-03T11:20:18.449Z,98.20
2019-04-03T11:22:48.289Z,99.00
2019-04-03T11:25:18.569Z,98.80
2019-04-03T11:27:47.948Z,98.80
2019-04-03T11:30:24.490Z,97.90
2019-04-03T11:32:51.516Z,98.20
2019-04-03T11:35:22.290Z,97.60
2019-04-03T11:37:51.833Z,97.60
2019-04-03T11:40:24.225Z,97.90
2019-04-03T11:42:52.832Z,97.70
2019-04-03T11:45:22.442Z,98.00
2019-04-03T11:47:51.743Z,96.70
2019-04-03T11:50:23.479Z,97.00
2019-04-03T11:52:52.755Z,97.00
2019-04-03T11:55:22.164Z,96.40
2019-04-03T11:57:51.505Z,96.20
2019-04-03T12:00:30.209Z,96.90
2019-04-03T12:03:00.159Z,97.10
2019-04-03T12:05:29.534Z,97.20
2019-04-03T12:07:58.875Z,96.70
2019-04-03T12:10:28.233Z,98.10
2019-04-03T12:12:57.587Z,96.80
2019-04-03T12:15:26.977Z,96.00
2019-04-03T12:17:56.552Z,96.50
2019-04-03T12:20:26.166Z,95.90
2019-04-03T12:22:55.818Z,96.30
2019-04-03T12:25:25.413Z,95.90
2019-04-03T12:27:55.050Z,96.20
2019-04-03T12:30:26.389Z,96.20
2019-04-03T12:32:55.691Z,95.60
2019-04-03T12:35:25.089Z,95.90
2019-04-03T12:37:54.558Z,95.70
2019-04-03T12:40:23.849Z,95.80
2019-04-03T12:42:53.305Z,95.90
2019-04-03T12:45:24.242Z,96.00
2019-04-03T12:47:53.676Z,96.10
2019-04-03T12:50:26.812Z,96.60
2019-04-03T12:52:54.070Z,97.30
2019-04-03T12:55:25.596Z,98.00
2019-04-03T12:57:54.698Z,98.50
2019-04-03T13:00:24.710Z,99.50
2019-04-03T13:02:54.362Z,99.90
2019-04-03T13:05:24.324Z,99.90
2019-04-03T13:07:53.727Z,99.90
2019-04-03T13:10:23.354Z,99.90
2019-04-03T13:12:54.616Z,99.90
2019-04-03T13:15:23.928Z,99.90
2019-04-03T13:17:53.401Z,99.90
2019-04-03T13:20:22.683Z,99.90
2019-04-03T13:22:52.018Z,99.90
2019-04-03T13:25:22.271Z,99.90
2019-04-03T13:27:51.920Z,99.90
2019-04-03T13:30:21.616Z,99.90
2019-04-03T13:32:58.381Z,99.90
2019-04-03T13:35:22.080Z,99.90
2019-04-03T13:37:51.416Z,99.90
2019-04-03T13:40:21.427Z,99.90
2019-04-03T13:42:50.753Z,99.90
2019-04-03T13:45:20.386Z,99.90
2019-04-03T13:47:50.037Z,99.90
2019-04-03T13:50:21.843Z,99.90
2019-04-03T13:52:51.310Z,99.90
2019-04-03T13:55:20.954Z,99.90
2019-04-03T13:57:51.396Z,99.90
2019-04-03T14:00:23.512Z,99.90
2019-04-03T14:02:52.734Z,99.90
2019-04-03T14:05:22.143Z,99.90
2019-04-03T14:07:51.471Z,99.90
2019-04-03T14:10:21.951Z,99.90
2019-04-03T14:12:51.281Z,99.90
2019-04-03T14:15:21.832Z,99.90
2019-04-03T14:17:56.588Z,99.90
2019-04-03T14:20:24.169Z,99.90
2019-04-03T14:22:54.238Z,99.90
2019-04-03T14:25:27.621Z,99.90
2019-04-03T14:27:54.687Z,99.90
2019-04-03T14:30:24.023Z,99.90
2019-04-03T14:32:54.670Z,99.90
2019-04-03T14:35:45.474Z,99.90
2019-04-03T14:37:58.293Z,99.90
2019-04-03T14:40:26.879Z,99.90
2019-04-03T14:42:58.714Z,99.90
2019-04-03T14:45:27.833Z,99.90
2019-04-03T14:47:57.438Z,99.90
2019-04-03T14:50:26.756Z,99.90
2019-04-03T14:52:56.088Z,99.90
2019-04-03T14:55:26.628Z,99.90
2019-04-03T14:57:56.481Z,99.90
2019-04-03T15:00:30.268Z,99.90
2019-04-03T15:02:57.583Z,99.90
2019-04-03T15:05:27.286Z,99.90
2019-04-03T15:07:56.620Z,99.90
2019-04-03T15:10:26.247Z,99.90
2019-04-03T15:12:55.675Z,99.90
2019-04-03T15:15:27.557Z,99.90
2019-04-03T15:17:56.674Z,99.90
2019-04-03T15:20:26.343Z,99.90
2019-04-03T15:22:56.038Z,99.90
2019-04-03T15:25:25.995Z,99.90
2019-04-03T15:27:57.315Z,99.90
2019-04-03T15:30:27.243Z,99.90
2019-04-03T15:32:56.625Z,99.90
2019-04-03T15:35:25.982Z,99.90
2019-04-03T15:37:55.986Z,99.90
2019-04-03T15:40:26.892Z,99.90
2019-04-03T15:42:56.808Z,99.90
2019-04-03T15:45:26.296Z,99.90
2019-04-03T15:47:57.667Z,99.90
2019-04-03T15:50:28.024Z,99.90
2019-04-03T15:53:00.704Z,99.90
2019-04-03T15:55:30.058Z,99.90
2019-04-03T15:57:59.410Z,99.90
2019-04-03T16:00:30.544Z,99.90
2019-04-03T16:03:00.324Z,99.90
2019-04-03T16:05:31.267Z,99.90
2019-04-03T16:08:00.911Z,99.90
2019-04-03T16:10:30.249Z,99.90
2019-04-03T16:12:59.918Z,99.90
2019-04-03T16:15:29.242Z,99.90
2019-04-03T16:17:59.003Z,99.90
2019-04-03T16:20:28.869Z,99.90
2019-04-03T16:22:58.382Z,99.90
2019-04-03T16:25:27.826Z,99.90
2019-04-03T16:27:58.752Z,99.90
2019-04-03T16:30:28.568Z,99.90
2019-04-03T16:33:02.374Z,99.90
2019-04-03T16:35:29.274Z,99.90
2019-04-03T16:37:59.086Z,99.90
2019-04-03T16:40:30.997Z,99.90
2019-04-03T16:42:59.483Z,99.90
2019-04-03T16:45:28.814Z,99.90
2019-04-03T16:47:58.163Z,99.90
2019-04-03T16:50:28.295Z,99.90
2019-04-03T16:52:58.178Z,99.90
2019-04-03T16:55:27.511Z,99.90
2019-04-03T16:57:57.360Z,99.90
2019-04-03T17:00:26.846Z,99.90
2019-04-03T17:02:57.032Z,99.90
2019-04-03T17:05:26.731Z,99.90
2019-04-03T17:07:56.106Z,99.90
2019-04-03T17:10:25.437Z,99.90
2019-04-03T17:12:55.027Z,99.90
2019-04-03T17:15:25.996Z,99.90
2019-04-03T17:17:55.947Z,99.90
2019-04-03T17:20:25.233Z,99.90
2019-04-03T17:22:54.895Z,99.90
2019-04-03T17:25:26.869Z,99.90
2019-04-03T17:27:58.126Z,99.90
2019-04-03T17:30:26.463Z,99.90
2019-04-03T17:32:55.792Z,99.90
2019-04-03T17:35:25.315Z,99.90
2019-04-03T17:37:54.745Z,99.90
2019-04-03T17:40:24.077Z,99.90
2019-04-03T17:42:53.441Z,99.90
2019-04-03T17:45:22.774Z,99.90
2019-04-03T17:47:53.885Z,99.90
2019-04-03T17:50:23.234Z,99.90
2019-04-03T17:52:52.562Z,99.90
2019-04-03T17:55:21.891Z,99.90
2019-04-03T17:57:51.223Z,99.90
2019-04-03T18:00:22.231Z,99.90
2019-04-03T18:02:51.558Z,99.90
2019-04-03T18:05:20.886Z,99.90
2019-04-03T18:07:50.219Z,99.90
2019-04-03T18:10:19.956Z,99.90
2019-04-03T18:12:50.210Z,99.90
2019-04-03T18:15:20.433Z,99.90
2019-04-03T18:17:49.768Z,99.90
2019-04-03T18:20:19.506Z,99.90
2019-04-03T18:22:51.108Z,99.90
2019-04-03T18:25:19.903Z,99.90
2019-04-03T18:27:49.240Z,99.90
2019-04-03T18:30:20.546Z,99.90
2019-04-03T18:32:49.875Z,99.90
2019-04-03T18:35:19.202Z,99.90
2019-04-03T18:37:48.548Z,99.90
2019-04-03T18:40:18.053Z,99.90
2019-04-03T18:42:49.549Z,99.90
2019-04-03T18:45:24.903Z,99.90
2019-04-03T18:47:51.004Z,99.90
2019-04-03T18:50:20.704Z,99.90
2019-04-03T18:52:50.303Z,99.90
2019-04-03T18:55:19.703Z,99.90
2019-04-03T18:57:50.245Z,99.90
2019-04-03T19:00:20.956Z,99.90
2019-04-03T19:02:50.294Z,99.90
2019-04-03T19:05:19.728Z,99.90
2019-04-03T19:07:49.062Z,99.90
2019-04-03T19:10:18.884Z,99.90
2019-04-03T19:12:48.247Z,99.90
2019-04-03T19:15:18.302Z,99.90
2019-04-03T19:17:59.437Z,99.90
2019-04-03T19:20:19.022Z,99.90
2019-04-03T19:22:48.797Z,99.90
2019-04-03T19:25:18.129Z,99.90
2019-04-03T19:27:49.760Z,99.90
2019-04-03T19:30:18.610Z,99.90
2019-04-03T19:32:48.196Z,99.90
2019-04-03T19:35:17.530Z,99.90
2019-04-03T19:37:46.855Z,99.90
2019-04-03T19:40:16.329Z,99.90
2019-04-03T19:42:48.666Z,99.90
2019-04-03T19:45:16.788Z,99.90
2019-04-03T19:47:46.117Z,99.90
2019-04-03T19:50:17.156Z,99.90
2019-04-03T19:52:46.496Z,99.90
2019-04-03T19:55:16.001Z,99.90
2019-04-03T19:57:45.333Z,99.90
2019-04-03T20:00:15.674Z,99.90
2019-04-03T20:02:45.002Z,99.90
2019-04-03T20:05:14.694Z,99.90
2019-04-03T20:07:44.024Z,99.90
2019-04-03T20:10:13.791Z,99.90
2019-04-03T20:12:43.131Z,99.90
2019-04-03T20:15:12.969Z,99.90
2019-04-03T20:17:42.308Z,99.90
2019-04-03T20:20:12.174Z,99.90
2019-04-03T20:22:42.596Z,99.90
2019-04-03T20:25:14.499Z,99.90
2019-04-03T20:27:43.158Z,99.90
2019-04-03T20:30:14.416Z,99.90
2019-04-03T20:32:43.742Z,99.90
2019-04-03T20:35:13.076Z,99.90
2019-04-03T20:37:44.017Z,99.90
2019-04-03T20:40:13.612Z,99.90
2019-04-03T20:42:42.956Z,99.90
2019-04-03T20:45:12.458Z,99.90
2019-04-03T20:47:41.782Z,99.90
2019-04-03T20:50:11.729Z,99.90
2019-04-03T20:52:41.057Z,99.90
2019-04-03T20:55:11.197Z,99.90
2019-04-03T20:57:40.523Z,99.90
2019-04-03T21:00:18.331Z,99.90
2019-04-03T21:02:45.842Z,99.90
2019-04-03T21:05:18.719Z,99.90
2019-04-03T21:07:47.707Z,99.90
2019-04-03T21:10:17.107Z,99.90
2019-04-03T21:12:46.439Z,99.90
2019-04-03T21:15:15.944Z,99.90
2019-04-03T21:17:46.195Z,99.90
2019-04-03T21:20:15.732Z,99.90
2019-04-03T21:22:45.060Z,99.90
2019-04-03T21:25:14.392Z,99.90
2019-04-03T21:27:43.771Z,99.90
2019-04-03T21:30:13.643Z,99.90
2019-04-03T21:32:43.013Z,99.90
2019-04-03T21:35:12.414Z,99.90
2019-04-03T21:37:41.738Z,99.90
2019-04-03T21:40:14.727Z,99.90
2019-04-03T21:42:42.391Z,99.90
2019-04-03T21:45:12.027Z,99.90
2019-04-03T21:47:42.722Z,99.90
2019-04-03T21:50:13.149Z,99.90
2019-04-03T21:52:42.481Z,99.90
2019-04-03T21:55:12.047Z,99.90
2019-04-03T21:57:41.383Z,99.90
2019-04-03T22:00:14.374Z,99.90
2019-04-03T22:02:45.193Z,99.90
2019-04-03T22:05:14.878Z,99.90
2019-04-03T22:07:44.208Z,99.90
2019-04-03T22:10:15.211Z,99.90
2019-04-03T22:12:44.547Z,99.90
2019-04-03T22:15:14.593Z,99.90
2019-04-03T22:17:44.032Z,99.90
2019-04-03T22:20:13.437Z,99.90
2019-04-03T22:22:42.766Z,99.90
2019-04-03T22:25:12.177Z,99.90
2019-04-03T22:27:42.873Z,99.90
2019-04-03T22:30:12.779Z,99.90
2019-04-03T22:32:42.100Z,99.90
2019-04-03T22:35:11.532Z,99.90
2019-04-03T22:37:40.829Z,99.90
2019-04-03T22:40:10.864Z,99.90
2019-04-03T22:42:40.308Z,99.90
2019-04-03T22:45:09.967Z,99.90
2019-04-03T22:47:39.298Z,99.90
2019-04-03T22:50:09.270Z,99.90
2019-04-03T22:52:39.965Z,99.90
2019-04-03T22:55:09.806Z,99.90
2019-04-03T22:57:39.139Z,99.90
2019-04-03T23:00:09.480Z,99.90
2019-04-03T23:02:38.807Z,99.90
2019-04-03T23:05:08.303Z,99.90
2019-04-03T23:07:37.632Z,99.90
2019-04-03T23:10:08.969Z,99.90
2019-04-03T23:12:38.298Z,99.90
2019-04-03T23:15:09.444Z,99.90
2019-04-03T23:17:38.977Z,99.90
2019-04-03T23:20:08.812Z,99.90
2019-04-03T23:22:38.140Z,99.90
2019-04-03T23:25:08.008Z,99.90
2019-04-03T23:27:37.343Z,99.90
2019-04-03T23:30:10.044Z,99.90
2019-04-03T23:32:38.861Z,99.90
2019-04-03T23:35:08.422Z,99.90
2019-04-03T23:37:37.751Z,99.90
2019-04-03T23:40:08.397Z,99.90
2019-04-03T23:42:38.357Z,99.90
2019-04-03T23:45:09.246Z,99.90
2019-04-03T23:47:38.574Z,99.90
2019-04-03T23:50:08.341Z,99.90
2019-04-03T23:52:37.676Z,99.90
2019-04-03T23:55:07.514Z,99.90
2019-04-03T23:57:39.653Z,99.90
